sensor_id;sensor_type;location;lat;lon;timestamp;P1;durP1;ratioP1;P2;durP2;ratioP2
52838;SDS011;39219;53.678;9.856;2023-09-30T00:01:08;15.07;;;4.18;;
52838;SDS011;39219;53.678;9.856;2023-09-30T00:03:34;15.93;;;3.95;;
52838;SDS011;39219;53.678;9.856;2023-09-30T00:06:01;13.35;;;4.20;;
52838;SDS011;39219;53.678;9.856;2023-09-30T00:08:27;23.15;;;4.47;;
52838;SDS011;39219;53.678;9.856;2023-09-30T00:10:53;15.15;;;4.22;;
52838;SDS011;39219;53.678;9.856;2023-09-30T00:13:20;16.38;;;4.30;;
52838;SDS011;39219;53.678;9.856;2023-09-30T00:15:48;17.33;;;4.10;;
52838;SDS011;39219;53.678;9.856;2023-09-30T00:18:14;19.65;;;4.25;;
52838;SDS011;39219;53.678;9.856;2023-09-30T00:20:40;17.95;;;4.40;;
52838;SDS011;39219;53.678;9.856;2023-09-30T00:23:06;19.90;;;4.45;;
52838;SDS011;39219;53.678;9.856;2023-09-30T00:25:33;17.08;;;4.90;;
52838;SDS011;39219;53.678;9.856;2023-09-30T00:28:00;17.30;;;4.75;;
52838;SDS011;39219;53.678;9.856;2023-09-30T00:30:26;13.35;;;3.75;;
52838;SDS011;39219;53.678;9.856;2023-09-30T00:32:54;15.93;;;4.30;;
52838;SDS011;39219;53.678;9.856;2023-09-30T00:35:20;14.52;;;3.95;;
52838;SDS011;39219;53.678;9.856;2023-09-30T00:37:46;15.35;;;3.67;;
52838;SDS011;39219;53.678;9.856;2023-09-30T00:40:13;18.80;;;4.30;;
52838;SDS011;39219;53.678;9.856;2023-09-30T00:42:39;17.30;;;4.10;;
52838;SDS011;39219;53.678;9.856;2023-09-30T00:45:06;17.17;;;4.60;;
52838;SDS011;39219;53.678;9.856;2023-09-30T00:47:34;14.85;;;4.63;;
52838;SDS011;39219;53.678;9.856;2023-09-30T00:50:02;19.17;;;4.45;;
52838;SDS011;39219;53.678;9.856;2023-09-30T00:52:29;14.13;;;4.05;;
52838;SDS011;39219;53.678;9.856;2023-09-30T00:54:58;18.60;;;4.55;;
52838;SDS011;39219;53.678;9.856;2023-09-30T00:57:24;19.98;;;4.18;;
52838;SDS011;39219;53.678;9.856;2023-09-30T00:59:51;14.90;;;3.88;;
52838;SDS011;39219;53.678;9.856;2023-09-30T01:02:17;15.77;;;4.07;;
52838;SDS011;39219;53.678;9.856;2023-09-30T01:04:44;14.57;;;5.03;;
52838;SDS011;39219;53.678;9.856;2023-09-30T01:07:12;17.67;;;4.10;;
52838;SDS011;39219;53.678;9.856;2023-09-30T01:09:38;13.27;;;4.05;;
52838;SDS011;39219;53.678;9.856;2023-09-30T01:12:04;16.27;;;4.13;;
52838;SDS011;39219;53.678;9.856;2023-09-30T01:14:33;17.00;;;3.80;;
52838;SDS011;39219;53.678;9.856;2023-09-30T01:16:59;18.95;;;4.60;;
52838;SDS011;39219;53.678;9.856;2023-09-30T01:19:26;15.45;;;3.88;;
52838;SDS011;39219;53.678;9.856;2023-09-30T01:21:54;14.68;;;3.97;;
52838;SDS011;39219;53.678;9.856;2023-09-30T01:24:24;16.02;;;4.10;;
52838;SDS011;39219;53.678;9.856;2023-09-30T01:26:50;14.52;;;3.67;;
52838;SDS011;39219;53.678;9.856;2023-09-30T01:29:17;18.27;;;4.22;;
52838;SDS011;39219;53.678;9.856;2023-09-30T01:31:43;14.63;;;3.60;;
52838;SDS011;39219;53.678;9.856;2023-09-30T01:34:13;15.93;;;3.88;;
52838;SDS011;39219;53.678;9.856;2023-09-30T01:36:39;14.13;;;3.75;;
52838;SDS011;39219;53.678;9.856;2023-09-30T01:39:06;15.32;;;3.78;;
52838;SDS011;39219;53.678;9.856;2023-09-30T01:41:33;12.60;;;3.83;;
52838;SDS011;39219;53.678;9.856;2023-09-30T01:43:59;17.92;;;3.90;;
52838;SDS011;39219;53.678;9.856;2023-09-30T01:46:25;18.35;;;4.40;;
52838;SDS011;39219;53.678;9.856;2023-09-30T01:48:52;18.05;;;4.53;;
52838;SDS011;39219;53.678;9.856;2023-09-30T01:51:18;16.60;;;3.63;;
52838;SDS011;39219;53.678;9.856;2023-09-30T01:53:44;13.65;;;3.53;;
52838;SDS011;39219;53.678;9.856;2023-09-30T01:56:12;12.95;;;3.85;;
52838;SDS011;39219;53.678;9.856;2023-09-30T01:58:38;19.33;;;3.88;;
52838;SDS011;39219;53.678;9.856;2023-09-30T02:01:04;14.18;;;3.80;;
52838;SDS011;39219;53.678;9.856;2023-09-30T02:03:31;20.23;;;4.45;;
52838;SDS011;39219;53.678;9.856;2023-09-30T02:05:57;17.52;;;4.20;;
52838;SDS011;39219;53.678;9.856;2023-09-30T02:08:24;18.92;;;3.95;;
52838;SDS011;39219;53.678;9.856;2023-09-30T02:10:50;17.70;;;3.92;;
52838;SDS011;39219;53.678;9.856;2023-09-30T02:13:18;21.58;;;4.22;;
52838;SDS011;39219;53.678;9.856;2023-09-30T02:15:45;11.07;;;3.58;;
52838;SDS011;39219;53.678;9.856;2023-09-30T02:18:11;12.77;;;3.65;;
52838;SDS011;39219;53.678;9.856;2023-09-30T02:20:37;18.75;;;4.35;;
52838;SDS011;39219;53.678;9.856;2023-09-30T02:23:04;14.05;;;4.10;;
52838;SDS011;39219;53.678;9.856;2023-09-30T02:25:31;15.10;;;4.53;;
52838;SDS011;39219;53.678;9.856;2023-09-30T02:27:58;15.50;;;4.38;;
52838;SDS011;39219;53.678;9.856;2023-09-30T02:30:26;21.48;;;4.53;;
52838;SDS011;39219;53.678;9.856;2023-09-30T02:32:53;13.75;;;3.92;;
52838;SDS011;39219;53.678;9.856;2023-09-30T02:35:21;15.68;;;3.97;;
52838;SDS011;39219;53.678;9.856;2023-09-30T02:37:47;16.42;;;3.70;;
52838;SDS011;39219;53.678;9.856;2023-09-30T02:40:14;16.17;;;4.03;;
52838;SDS011;39219;53.678;9.856;2023-09-30T02:42:42;18.20;;;4.07;;
52838;SDS011;39219;53.678;9.856;2023-09-30T02:45:09;15.15;;;4.22;;
52838;SDS011;39219;53.678;9.856;2023-09-30T02:47:37;17.98;;;4.38;;
52838;SDS011;39219;53.678;9.856;2023-09-30T02:50:04;18.13;;;4.30;;
52838;SDS011;39219;53.678;9.856;2023-09-30T02:52:30;17.80;;;4.30;;
52838;SDS011;39219;53.678;9.856;2023-09-30T02:54:57;19.02;;;4.30;;
52838;SDS011;39219;53.678;9.856;2023-09-30T02:57:24;18.08;;;4.18;;
52838;SDS011;39219;53.678;9.856;2023-09-30T02:59:50;19.10;;;4.30;;
52838;SDS011;39219;53.678;9.856;2023-09-30T03:02:17;15.98;;;4.25;;
52838;SDS011;39219;53.678;9.856;2023-09-30T03:04:45;15.43;;;4.10;;
52838;SDS011;39219;53.678;9.856;2023-09-30T03:07:12;18.27;;;4.43;;
52838;SDS011;39219;53.678;9.856;2023-09-30T03:09:38;18.55;;;4.65;;
52838;SDS011;39219;53.678;9.856;2023-09-30T03:12:05;19.38;;;4.82;;
52838;SDS011;39219;53.678;9.856;2023-09-30T03:14:33;15.65;;;4.57;;
52838;SDS011;39219;53.678;9.856;2023-09-30T03:17:00;16.80;;;4.35;;
52838;SDS011;39219;53.678;9.856;2023-09-30T03:19:26;17.15;;;4.82;;
52838;SDS011;39219;53.678;9.856;2023-09-30T03:21:53;15.80;;;4.55;;
52838;SDS011;39219;53.678;9.856;2023-09-30T03:24:20;22.08;;;4.53;;
52838;SDS011;39219;53.678;9.856;2023-09-30T03:26:47;15.63;;;4.13;;
52838;SDS011;39219;53.678;9.856;2023-09-30T03:29:14;22.08;;;5.00;;
52838;SDS011;39219;53.678;9.856;2023-09-30T03:31:41;17.55;;;5.22;;
52838;SDS011;39219;53.678;9.856;2023-09-30T03:34:07;19.48;;;4.85;;
52838;SDS011;39219;53.678;9.856;2023-09-30T03:36:33;15.57;;;4.70;;
52838;SDS011;39219;53.678;9.856;2023-09-30T03:39:02;17.65;;;4.50;;
52838;SDS011;39219;53.678;9.856;2023-09-30T03:41:32;17.58;;;4.55;;
52838;SDS011;39219;53.678;9.856;2023-09-30T03:44:00;18.48;;;5.18;;
52838;SDS011;39219;53.678;9.856;2023-09-30T03:46:26;15.05;;;4.75;;
52838;SDS011;39219;53.678;9.856;2023-09-30T03:48:53;16.73;;;4.72;;
52838;SDS011;39219;53.678;9.856;2023-09-30T03:51:20;20.10;;;5.00;;
52838;SDS011;39219;53.678;9.856;2023-09-30T03:53:50;20.35;;;5.40;;
52838;SDS011;39219;53.678;9.856;2023-09-30T03:56:18;16.48;;;5.10;;
52838;SDS011;39219;53.678;9.856;2023-09-30T03:58:44;22.15;;;5.60;;
52838;SDS011;39219;53.678;9.856;2023-09-30T04:01:11;18.00;;;5.10;;
52838;SDS011;39219;53.678;9.856;2023-09-30T04:03:39;17.67;;;5.20;;
52838;SDS011;39219;53.678;9.856;2023-09-30T04:06:08;21.90;;;6.20;;
52838;SDS011;39219;53.678;9.856;2023-09-30T04:08:34;14.95;;;5.00;;
52838;SDS011;39219;53.678;9.856;2023-09-30T04:11:01;17.42;;;5.55;;
52838;SDS011;39219;53.678;9.856;2023-09-30T04:13:29;19.48;;;5.25;;
52838;SDS011;39219;53.678;9.856;2023-09-30T04:15:56;18.42;;;5.20;;
52838;SDS011;39219;53.678;9.856;2023-09-30T04:18:23;18.70;;;5.13;;
52838;SDS011;39219;53.678;9.856;2023-09-30T04:20:51;23.60;;;5.40;;
52838;SDS011;39219;53.678;9.856;2023-09-30T04:23:17;19.25;;;5.20;;
52838;SDS011;39219;53.678;9.856;2023-09-30T04:25:45;17.48;;;4.95;;
52838;SDS011;39219;53.678;9.856;2023-09-30T04:28:11;16.10;;;4.80;;
52838;SDS011;39219;53.678;9.856;2023-09-30T04:30:40;19.05;;;5.35;;
52838;SDS011;39219;53.678;9.856;2023-09-30T04:33:07;15.10;;;4.40;;
52838;SDS011;39219;53.678;9.856;2023-09-30T04:35:33;16.13;;;5.00;;
52838;SDS011;39219;53.678;9.856;2023-09-30T04:38:00;17.13;;;5.05;;
52838;SDS011;39219;53.678;9.856;2023-09-30T04:40:27;19.45;;;4.90;;
52838;SDS011;39219;53.678;9.856;2023-09-30T04:42:54;17.23;;;4.88;;
52838;SDS011;39219;53.678;9.856;2023-09-30T04:45:23;16.70;;;4.90;;
52838;SDS011;39219;53.678;9.856;2023-09-30T04:47:52;19.27;;;5.25;;
52838;SDS011;39219;53.678;9.856;2023-09-30T04:50:18;17.95;;;5.03;;
52838;SDS011;39219;53.678;9.856;2023-09-30T04:52:46;22.08;;;5.45;;
52838;SDS011;39219;53.678;9.856;2023-09-30T04:55:13;14.60;;;5.20;;
52838;SDS011;39219;53.678;9.856;2023-09-30T04:57:41;12.20;;;4.70;;
52838;SDS011;39219;53.678;9.856;2023-09-30T05:00:10;16.38;;;5.18;;
52838;SDS011;39219;53.678;9.856;2023-09-30T05:02:37;16.42;;;4.80;;
52838;SDS011;39219;53.678;9.856;2023-09-30T05:05:05;20.23;;;5.30;;
52838;SDS011;39219;53.678;9.856;2023-09-30T05:07:32;21.05;;;5.32;;
52838;SDS011;39219;53.678;9.856;2023-09-30T05:09:58;20.92;;;5.20;;
52838;SDS011;39219;53.678;9.856;2023-09-30T05:12:25;22.40;;;4.70;;
52838;SDS011;39219;53.678;9.856;2023-09-30T05:14:51;17.80;;;5.10;;
52838;SDS011;39219;53.678;9.856;2023-09-30T05:17:20;16.63;;;5.07;;
52838;SDS011;39219;53.678;9.856;2023-09-30T05:19:46;19.35;;;5.95;;
52838;SDS011;39219;53.678;9.856;2023-09-30T05:22:14;14.13;;;4.80;;
52838;SDS011;39219;53.678;9.856;2023-09-30T05:24:43;17.25;;;5.22;;
52838;SDS011;39219;53.678;9.856;2023-09-30T05:27:10;18.35;;;5.35;;
52838;SDS011;39219;53.678;9.856;2023-09-30T05:29:36;20.55;;;5.47;;
52838;SDS011;39219;53.678;9.856;2023-09-30T05:32:02;15.40;;;5.45;;
52838;SDS011;39219;53.678;9.856;2023-09-30T05:34:28;17.27;;;5.00;;
52838;SDS011;39219;53.678;9.856;2023-09-30T05:36:55;17.92;;;5.20;;
52838;SDS011;39219;53.678;9.856;2023-09-30T05:39:22;16.90;;;5.30;;
52838;SDS011;39219;53.678;9.856;2023-09-30T05:41:50;19.00;;;5.22;;
52838;SDS011;39219;53.678;9.856;2023-09-30T05:44:16;19.45;;;5.35;;
52838;SDS011;39219;53.678;9.856;2023-09-30T05:46:43;18.77;;;5.60;;
52838;SDS011;39219;53.678;9.856;2023-09-30T05:49:10;18.08;;;5.18;;
52838;SDS011;39219;53.678;9.856;2023-09-30T05:51:38;15.35;;;5.15;;
52838;SDS011;39219;53.678;9.856;2023-09-30T05:54:05;15.82;;;5.30;;
52838;SDS011;39219;53.678;9.856;2023-09-30T05:56:34;13.60;;;5.13;;
52838;SDS011;39219;53.678;9.856;2023-09-30T05:59:00;14.82;;;5.10;;
52838;SDS011;39219;53.678;9.856;2023-09-30T06:01:26;19.45;;;5.30;;
52838;SDS011;39219;53.678;9.856;2023-09-30T06:03:53;15.40;;;5.43;;
52838;SDS011;39219;53.678;9.856;2023-09-30T06:06:19;17.30;;;4.80;;
52838;SDS011;39219;53.678;9.856;2023-09-30T06:08:46;17.23;;;4.95;;
52838;SDS011;39219;53.678;9.856;2023-09-30T06:11:18;16.85;;;5.10;;
52838;SDS011;39219;53.678;9.856;2023-09-30T06:13:46;18.75;;;5.03;;
52838;SDS011;39219;53.678;9.856;2023-09-30T06:16:12;15.40;;;4.93;;
52838;SDS011;39219;53.678;9.856;2023-09-30T06:18:38;15.77;;;5.00;;
52838;SDS011;39219;53.678;9.856;2023-09-30T06:21:04;15.60;;;5.25;;
52838;SDS011;39219;53.678;9.856;2023-09-30T06:23:31;16.88;;;4.53;;
52838;SDS011;39219;53.678;9.856;2023-09-30T06:25:59;16.23;;;4.78;;
52838;SDS011;39219;53.678;9.856;2023-09-30T06:28:27;17.20;;;4.22;;
52838;SDS011;39219;53.678;9.856;2023-09-30T06:30:57;15.68;;;4.88;;
52838;SDS011;39219;53.678;9.856;2023-09-30T06:33:25;14.35;;;4.32;;
52838;SDS011;39219;53.678;9.856;2023-09-30T06:35:54;15.70;;;4.72;;
52838;SDS011;39219;53.678;9.856;2023-09-30T06:38:20;14.23;;;4.78;;
52838;SDS011;39219;53.678;9.856;2023-09-30T06:40:47;17.63;;;4.90;;
52838;SDS011;39219;53.678;9.856;2023-09-30T06:43:13;16.15;;;4.18;;
52838;SDS011;39219;53.678;9.856;2023-09-30T06:45:40;16.20;;;4.20;;
52838;SDS011;39219;53.678;9.856;2023-09-30T06:48:08;16.83;;;4.43;;
52838;SDS011;39219;53.678;9.856;2023-09-30T06:50:37;13.85;;;3.63;;
52838;SDS011;39219;53.678;9.856;2023-09-30T06:53:03;16.15;;;4.00;;
52838;SDS011;39219;53.678;9.856;2023-09-30T06:55:30;17.58;;;4.20;;
52838;SDS011;39219;53.678;9.856;2023-09-30T06:57:56;11.35;;;3.80;;
52838;SDS011;39219;53.678;9.856;2023-09-30T07:00:23;12.73;;;3.88;;
52838;SDS011;39219;53.678;9.856;2023-09-30T07:02:50;15.50;;;3.72;;
52838;SDS011;39219;53.678;9.856;2023-09-30T07:05:18;10.73;;;3.35;;
52838;SDS011;39219;53.678;9.856;2023-09-30T07:07:44;12.68;;;3.25;;
52838;SDS011;39219;53.678;9.856;2023-09-30T07:10:10;12.80;;;3.13;;
52838;SDS011;39219;53.678;9.856;2023-09-30T07:12:37;11.93;;;3.28;;
52838;SDS011;39219;53.678;9.856;2023-09-30T07:15:04;14.18;;;3.75;;
52838;SDS011;39219;53.678;9.856;2023-09-30T07:17:31;13.27;;;3.85;;
52838;SDS011;39219;53.678;9.856;2023-09-30T07:19:58;10.93;;;3.80;;
52838;SDS011;39219;53.678;9.856;2023-09-30T07:22:26;11.27;;;3.47;;
52838;SDS011;39219;53.678;9.856;2023-09-30T07:24:52;11.02;;;3.30;;
52838;SDS011;39219;53.678;9.856;2023-09-30T07:27:19;11.48;;;3.40;;
52838;SDS011;39219;53.678;9.856;2023-09-30T07:29:45;10.88;;;3.45;;
52838;SDS011;39219;53.678;9.856;2023-09-30T07:32:13;11.98;;;3.00;;
52838;SDS011;39219;53.678;9.856;2023-09-30T07:34:39;10.02;;;3.40;;
52838;SDS011;39219;53.678;9.856;2023-09-30T07:37:06;11.18;;;3.42;;
52838;SDS011;39219;53.678;9.856;2023-09-30T07:39:33;11.65;;;3.13;;
52838;SDS011;39219;53.678;9.856;2023-09-30T07:42:00;13.02;;;3.30;;
52838;SDS011;39219;53.678;9.856;2023-09-30T07:44:26;12.40;;;3.08;;
52838;SDS011;39219;53.678;9.856;2023-09-30T07:46:52;13.48;;;3.50;;
52838;SDS011;39219;53.678;9.856;2023-09-30T07:49:19;9.07;;;2.80;;
52838;SDS011;39219;53.678;9.856;2023-09-30T07:51:45;9.80;;;2.90;;
52838;SDS011;39219;53.678;9.856;2023-09-30T07:54:12;10.05;;;2.95;;
52838;SDS011;39219;53.678;9.856;2023-09-30T07:56:39;14.73;;;2.92;;
52838;SDS011;39219;53.678;9.856;2023-09-30T07:59:06;10.38;;;2.78;;
52838;SDS011;39219;53.678;9.856;2023-09-30T08:01:32;10.65;;;2.90;;
52838;SDS011;39219;53.678;9.856;2023-09-30T08:03:58;9.18;;;2.85;;
52838;SDS011;39219;53.678;9.856;2023-09-30T08:06:25;11.15;;;3.05;;
52838;SDS011;39219;53.678;9.856;2023-09-30T08:08:51;10.60;;;2.95;;
52838;SDS011;39219;53.678;9.856;2023-09-30T08:11:17;9.73;;;2.60;;
52838;SDS011;39219;53.678;9.856;2023-09-30T08:13:47;11.10;;;2.97;;
52838;SDS011;39219;53.678;9.856;2023-09-30T08:16:13;10.60;;;3.25;;
52838;SDS011;39219;53.678;9.856;2023-09-30T08:18:39;12.77;;;3.40;;
52838;SDS011;39219;53.678;9.856;2023-09-30T08:21:08;13.38;;;2.97;;
52838;SDS011;39219;53.678;9.856;2023-09-30T08:23:35;8.93;;;2.70;;
52838;SDS011;39219;53.678;9.856;2023-09-30T08:26:01;9.18;;;2.85;;
52838;SDS011;39219;53.678;9.856;2023-09-30T08:28:30;11.15;;;2.92;;
52838;SDS011;39219;53.678;9.856;2023-09-30T08:31:01;11.95;;;3.00;;
52838;SDS011;39219;53.678;9.856;2023-09-30T08:33:27;10.65;;;2.88;;
52838;SDS011;39219;53.678;9.856;2023-09-30T08:35:55;6.80;;;2.47;;
52838;SDS011;39219;53.678;9.856;2023-09-30T08:38:23;10.32;;;2.60;;
52838;SDS011;39219;53.678;9.856;2023-09-30T08:40:49;11.77;;;2.85;;
52838;SDS011;39219;53.678;9.856;2023-09-30T08:43:18;11.80;;;2.88;;
52838;SDS011;39219;53.678;9.856;2023-09-30T08:45:45;10.70;;;3.17;;
52838;SDS011;39219;53.678;9.856;2023-09-30T08:48:14;13.63;;;3.05;;
52838;SDS011;39219;53.678;9.856;2023-09-30T08:50:40;9.82;;;2.67;;
52838;SDS011;39219;53.678;9.856;2023-09-30T08:53:08;12.10;;;2.80;;
52838;SDS011;39219;53.678;9.856;2023-09-30T08:55:35;8.50;;;2.60;;
52838;SDS011;39219;53.678;9.856;2023-09-30T08:58:03;9.73;;;2.70;;
52838;SDS011;39219;53.678;9.856;2023-09-30T09:00:30;12.02;;;3.35;;
52838;SDS011;39219;53.678;9.856;2023-09-30T09:02:56;11.90;;;2.80;;
52838;SDS011;39219;53.678;9.856;2023-09-30T09:05:24;11.57;;;3.03;;
52838;SDS011;39219;53.678;9.856;2023-09-30T09:07:50;9.13;;;2.80;;
52838;SDS011;39219;53.678;9.856;2023-09-30T09:10:16;8.70;;;2.70;;
52838;SDS011;39219;53.678;9.856;2023-09-30T09:12:43;10.55;;;2.92;;
52838;SDS011;39219;53.678;9.856;2023-09-30T09:15:21;10.48;;;2.58;;
52838;SDS011;39219;53.678;9.856;2023-09-30T09:17:47;10.10;;;2.53;;
52838;SDS011;39219;53.678;9.856;2023-09-30T09:20:16;7.30;;;2.40;;
52838;SDS011;39219;53.678;9.856;2023-09-30T09:22:47;15.45;;;2.75;;
52838;SDS011;39219;53.678;9.856;2023-09-30T09:25:13;13.02;;;2.80;;
52838;SDS011;39219;53.678;9.856;2023-09-30T09:27:39;11.13;;;2.80;;
52838;SDS011;39219;53.678;9.856;2023-09-30T09:30:15;12.95;;;3.00;;
52838;SDS011;39219;53.678;9.856;2023-09-30T09:35:23;13.23;;;2.83;;
52838;SDS011;39219;53.678;9.856;2023-09-30T09:37:57;8.27;;;2.17;;
52838;SDS011;39219;53.678;9.856;2023-09-30T09:40:25;9.27;;;2.70;;
52838;SDS011;39219;53.678;9.856;2023-09-30T09:42:51;11.18;;;3.13;;
52838;SDS011;39219;53.678;9.856;2023-09-30T09:45:20;8.40;;;2.40;;
52838;SDS011;39219;53.678;9.856;2023-09-30T09:47:47;10.35;;;2.55;;
52838;SDS011;39219;53.678;9.856;2023-09-30T09:50:14;12.32;;;2.75;;
52838;SDS011;39219;53.678;9.856;2023-09-30T09:52:41;9.68;;;2.20;;
52838;SDS011;39219;53.678;9.856;2023-09-30T09:55:09;11.98;;;2.42;;
52838;SDS011;39219;53.678;9.856;2023-09-30T09:57:36;12.07;;;2.78;;
52838;SDS011;39219;53.678;9.856;2023-09-30T10:00:03;13.40;;;2.67;;
52838;SDS011;39219;53.678;9.856;2023-09-30T10:02:34;9.30;;;2.33;;
52838;SDS011;39219;53.678;9.856;2023-09-30T10:05:01;9.48;;;2.40;;
52838;SDS011;39219;53.678;9.856;2023-09-30T10:07:29;7.47;;;2.30;;
52838;SDS011;39219;53.678;9.856;2023-09-30T10:09:57;12.35;;;3.10;;
52838;SDS011;39219;53.678;9.856;2023-09-30T10:12:26;8.73;;;2.47;;
52838;SDS011;39219;53.678;9.856;2023-09-30T10:14:52;10.27;;;2.70;;
52838;SDS011;39219;53.678;9.856;2023-09-30T10:17:19;10.57;;;2.30;;
52838;SDS011;39219;53.678;9.856;2023-09-30T10:22:36;10.77;;;2.50;;
52838;SDS011;39219;53.678;9.856;2023-09-30T10:28:00;9.27;;;2.33;;
52838;SDS011;39219;53.678;9.856;2023-09-30T10:30:27;10.38;;;2.00;;
52838;SDS011;39219;53.678;9.856;2023-09-30T10:33:09;9.38;;;2.17;;
52838;SDS011;39219;53.678;9.856;2023-09-30T10:35:42;8.02;;;1.95;;
52838;SDS011;39219;53.678;9.856;2023-09-30T10:40:54;10.43;;;2.55;;
52838;SDS011;39219;53.678;9.856;2023-09-30T10:43:29;9.27;;;2.30;;
52838;SDS011;39219;53.678;9.856;2023-09-30T10:45:56;11.32;;;2.92;;
52838;SDS011;39219;53.678;9.856;2023-09-30T10:48:33;11.32;;;2.38;;
52838;SDS011;39219;53.678;9.856;2023-09-30T10:51:00;8.80;;;2.30;;
52838;SDS011;39219;53.678;9.856;2023-09-30T10:53:27;10.27;;;2.58;;
52838;SDS011;39219;53.678;9.856;2023-09-30T10:55:55;8.55;;;2.30;;
52838;SDS011;39219;53.678;9.856;2023-09-30T10:58:21;8.30;;;2.33;;
52838;SDS011;39219;53.678;9.856;2023-09-30T11:00:55;7.53;;;2.10;;
52838;SDS011;39219;53.678;9.856;2023-09-30T11:03:22;12.48;;;2.42;;
52838;SDS011;39219;53.678;9.856;2023-09-30T11:05:49;7.57;;;2.53;;
52838;SDS011;39219;53.678;9.856;2023-09-30T11:08:16;10.63;;;2.67;;
52838;SDS011;39219;53.678;9.856;2023-09-30T11:10:46;7.53;;;2.38;;
52838;SDS011;39219;53.678;9.856;2023-09-30T11:13:13;8.75;;;2.00;;
52838;SDS011;39219;53.678;9.856;2023-09-30T11:15:39;8.95;;;2.22;;
52838;SDS011;39219;53.678;9.856;2023-09-30T11:18:16;8.05;;;2.25;;
52838;SDS011;39219;53.678;9.856;2023-09-30T11:20:43;9.02;;;2.30;;
52838;SDS011;39219;53.678;9.856;2023-09-30T11:23:10;7.32;;;1.75;;
52838;SDS011;39219;53.678;9.856;2023-09-30T11:25:37;12.73;;;2.35;;
52838;SDS011;39219;53.678;9.856;2023-09-30T11:28:13;10.88;;;2.58;;
52838;SDS011;39219;53.678;9.856;2023-09-30T11:30:52;8.25;;;2.30;;
52838;SDS011;39219;53.678;9.856;2023-09-30T11:33:18;9.98;;;2.13;;
52838;SDS011;39219;53.678;9.856;2023-09-30T11:35:55;9.88;;;2.30;;
52838;SDS011;39219;53.678;9.856;2023-09-30T11:38:22;11.48;;;2.20;;
52838;SDS011;39219;53.678;9.856;2023-09-30T11:40:58;7.75;;;2.10;;
52838;SDS011;39219;53.678;9.856;2023-09-30T11:43:26;8.32;;;2.17;;
52838;SDS011;39219;53.678;9.856;2023-09-30T11:46:03;11.73;;;2.45;;
52838;SDS011;39219;53.678;9.856;2023-09-30T11:48:29;6.53;;;2.05;;
52838;SDS011;39219;53.678;9.856;2023-09-30T11:50:55;9.38;;;2.10;;
52838;SDS011;39219;53.678;9.856;2023-09-30T11:53:25;7.80;;;2.10;;
52838;SDS011;39219;53.678;9.856;2023-09-30T11:55:51;8.68;;;2.45;;
52838;SDS011;39219;53.678;9.856;2023-09-30T11:58:20;9.98;;;2.38;;
52838;SDS011;39219;53.678;9.856;2023-09-30T12:00:48;9.13;;;2.40;;
52838;SDS011;39219;53.678;9.856;2023-09-30T12:03:15;9.45;;;2.20;;
52838;SDS011;39219;53.678;9.856;2023-09-30T12:05:42;9.30;;;2.15;;
52838;SDS011;39219;53.678;9.856;2023-09-30T12:08:10;7.43;;;2.30;;
52838;SDS011;39219;53.678;9.856;2023-09-30T12:10:37;9.35;;;2.22;;
52838;SDS011;39219;53.678;9.856;2023-09-30T12:13:03;9.80;;;2.33;;
52838;SDS011;39219;53.678;9.856;2023-09-30T12:15:30;8.60;;;2.00;;
52838;SDS011;39219;53.678;9.856;2023-09-30T12:17:57;6.93;;;2.03;;
52838;SDS011;39219;53.678;9.856;2023-09-30T12:20:24;8.98;;;2.10;;
52838;SDS011;39219;53.678;9.856;2023-09-30T12:22:50;8.48;;;2.10;;
52838;SDS011;39219;53.678;9.856;2023-09-30T12:25:17;9.05;;;2.38;;
52838;SDS011;39219;53.678;9.856;2023-09-30T12:27:46;7.25;;;1.92;;
52838;SDS011;39219;53.678;9.856;2023-09-30T12:30:13;6.75;;;1.92;;
52838;SDS011;39219;53.678;9.856;2023-09-30T12:32:39;8.75;;;2.30;;
52838;SDS011;39219;53.678;9.856;2023-09-30T12:35:07;8.57;;;1.95;;
52838;SDS011;39219;53.678;9.856;2023-09-30T12:37:35;8.10;;;2.13;;
52838;SDS011;39219;53.678;9.856;2023-09-30T12:40:03;7.75;;;1.90;;
52838;SDS011;39219;53.678;9.856;2023-09-30T12:42:31;9.05;;;2.42;;
52838;SDS011;39219;53.678;9.856;2023-09-30T12:45:00;8.25;;;2.40;;
52838;SDS011;39219;53.678;9.856;2023-09-30T12:47:26;8.38;;;2.10;;
52838;SDS011;39219;53.678;9.856;2023-09-30T12:49:52;6.20;;;1.85;;
52838;SDS011;39219;53.678;9.856;2023-09-30T12:52:21;6.97;;;1.77;;
52838;SDS011;39219;53.678;9.856;2023-09-30T12:54:48;8.07;;;1.90;;
52838;SDS011;39219;53.678;9.856;2023-09-30T12:57:14;10.95;;;2.78;;
52838;SDS011;39219;53.678;9.856;2023-09-30T12:59:42;7.75;;;2.17;;
52838;SDS011;39219;53.678;9.856;2023-09-30T13:02:11;9.25;;;2.20;;
52838;SDS011;39219;53.678;9.856;2023-09-30T13:04:37;7.25;;;2.20;;
52838;SDS011;39219;53.678;9.856;2023-09-30T13:07:07;10.50;;;2.50;;
52838;SDS011;39219;53.678;9.856;2023-09-30T13:09:35;6.07;;;1.90;;
52838;SDS011;39219;53.678;9.856;2023-09-30T13:12:02;6.78;;;2.15;;
52838;SDS011;39219;53.678;9.856;2023-09-30T13:14:29;7.57;;;1.98;;
52838;SDS011;39219;53.678;9.856;2023-09-30T13:16:55;5.65;;;1.58;;
52838;SDS011;39219;53.678;9.856;2023-09-30T13:19:21;8.77;;;1.77;;
52838;SDS011;39219;53.678;9.856;2023-09-30T13:21:48;7.25;;;1.85;;
52838;SDS011;39219;53.678;9.856;2023-09-30T13:24:15;6.53;;;2.00;;
52838;SDS011;39219;53.678;9.856;2023-09-30T13:26:43;10.48;;;1.90;;
52838;SDS011;39219;53.678;9.856;2023-09-30T13:29:09;7.18;;;1.85;;
52838;SDS011;39219;53.678;9.856;2023-09-30T13:31:36;7.13;;;1.83;;
52838;SDS011;39219;53.678;9.856;2023-09-30T13:34:03;8.60;;;2.17;;
52838;SDS011;39219;53.678;9.856;2023-09-30T13:36:30;9.02;;;2.00;;
52838;SDS011;39219;53.678;9.856;2023-09-30T13:38:56;6.70;;;1.88;;
52838;SDS011;39219;53.678;9.856;2023-09-30T13:41:22;8.20;;;2.42;;
52838;SDS011;39219;53.678;9.856;2023-09-30T13:43:50;9.80;;;2.60;;
52838;SDS011;39219;53.678;9.856;2023-09-30T13:46:17;11.40;;;2.20;;
52838;SDS011;39219;53.678;9.856;2023-09-30T13:48:43;9.40;;;2.33;;
52838;SDS011;39219;53.678;9.856;2023-09-30T13:51:10;8.98;;;2.17;;
52838;SDS011;39219;53.678;9.856;2023-09-30T13:53:36;8.43;;;2.00;;
52838;SDS011;39219;53.678;9.856;2023-09-30T13:56:03;7.93;;;2.03;;
52838;SDS011;39219;53.678;9.856;2023-09-30T13:58:29;8.13;;;2.03;;
52838;SDS011;39219;53.678;9.856;2023-09-30T14:00:57;5.50;;;1.60;;
52838;SDS011;39219;53.678;9.856;2023-09-30T14:03:23;7.75;;;2.10;;
52838;SDS011;39219;53.678;9.856;2023-09-30T14:05:50;6.90;;;2.05;;
52838;SDS011;39219;53.678;9.856;2023-09-30T14:08:18;7.45;;;1.70;;
52838;SDS011;39219;53.678;9.856;2023-09-30T14:10:44;7.15;;;1.92;;
52838;SDS011;39219;53.678;9.856;2023-09-30T14:13:11;8.43;;;2.13;;
52838;SDS011;39219;53.678;9.856;2023-09-30T14:15:37;5.93;;;2.13;;
52838;SDS011;39219;53.678;9.856;2023-09-30T14:18:05;6.93;;;2.05;;
52838;SDS011;39219;53.678;9.856;2023-09-30T14:20:31;7.03;;;1.90;;
52838;SDS011;39219;53.678;9.856;2023-09-30T14:22:58;9.30;;;2.30;;
52838;SDS011;39219;53.678;9.856;2023-09-30T14:25:24;9.85;;;2.40;;
52838;SDS011;39219;53.678;9.856;2023-09-30T14:27:51;12.60;;;2.15;;
52838;SDS011;39219;53.678;9.856;2023-09-30T14:30:17;7.85;;;2.33;;
52838;SDS011;39219;53.678;9.856;2023-09-30T14:32:45;7.95;;;1.95;;
52838;SDS011;39219;53.678;9.856;2023-09-30T14:35:12;8.27;;;1.83;;
52838;SDS011;39219;53.678;9.856;2023-09-30T14:37:40;7.95;;;2.33;;
52838;SDS011;39219;53.678;9.856;2023-09-30T14:40:07;6.45;;;2.17;;
52838;SDS011;39219;53.678;9.856;2023-09-30T14:42:35;4.85;;;1.95;;
52838;SDS011;39219;53.678;9.856;2023-09-30T14:45:01;8.95;;;2.40;;
52838;SDS011;39219;53.678;9.856;2023-09-30T14:47:28;9.10;;;2.20;;
52838;SDS011;39219;53.678;9.856;2023-09-30T14:49:54;8.80;;;2.08;;